M/V Bugra Tomba — TCEJ — position and weather

sailwx.info

Track history (hours):
 
Tides and Currents Weather Stations Pressure Air Temp Water Temp Dewpoint Dewpoint Depression Visibility Wind Speed Wind Dir Waves Ship Positions

M/V Bugra Tomba

Last reported at 2014-Dec-13 23:17 UTC. Time now 2014-Dec-18 17:21 UTC.
Position N 37°21' E 026°51'.

Length 99 m; draft 6.3 m.

Type: Ship. MMSI: 271000025.

Date/timePositionNaut miles runAvg speedWind from/ knotsBaromVisibWave heightAir tempDewpointWater temp
2014-Dec-13 23:17N 37°21' E 026°51'21 9.9
2014-Dec-13 21:09N 37°38' E 026°35'10 9.8
2014-Dec-13 20:06N 37°46' E 026°27'243 7.1
2014-Dec-12 10:04N 41°15' E 029°07'4 0.2
2014-Dec-11 16:24N 41°19' E 029°06'338 8.1
2014-Dec-09 22:33N 46°36' E 031°49'8 8.5
2014-Dec-09 21:33N 46°43' E 031°56'4 3.7
2014-Dec-09 20:33N 46°46' E 031°53'3 2.8
2014-Dec-09 19:33N 46°49' E 031°55'2 2.2
2014-Dec-09 18:33N 46°50' E 031°57'0 0.0
2014-Dec-09 17:33N 46°50' E 031°57'0 0.0
2014-Dec-09 16:33N 46°50' E 031°57'0 0.0
2014-Dec-09 15:33N 46°50' E 031°57'0 0.0
2014-Dec-09 14:33N 46°50' E 031°57'0 0.0
2014-Dec-09 13:33N 46°50' E 031°57'0 0.0
2014-Dec-09 12:33N 46°50' E 031°57'0 0.0
2014-Dec-09 11:33N 46°50' E 031°57'0 0.0
2014-Dec-09 10:33N 46°50' E 031°57'0 0.0
2014-Dec-09 09:33N 46°50' E 031°57'0 0.0
2014-Dec-09 08:33N 46°50' E 031°57'0 0.0
2014-Dec-09 07:33N 46°50' E 031°57'0 0.0
2014-Dec-09 06:33N 46°50' E 031°57'0 0.0
2014-Dec-09 05:33N 46°50' E 031°57'0 0.0
2014-Dec-09 04:33N 46°50' E 031°57'0 0.0
2014-Dec-09 03:33N 46°50' E 031°57'0 0.0
2014-Dec-09 02:33N 46°50' E 031°57'0 0.0
2014-Dec-09 01:33N 46°50' E 031°57'0 0.0
2014-Dec-09 00:33N 46°50' E 031°57'0 0.0
2014-Dec-08 23:33N 46°50' E 031°57'0 0.0
2014-Dec-08 22:33N 46°50' E 031°57'0 0.0
2014-Dec-08 21:33N 46°50' E 031°57'0 0.0
2014-Dec-08 20:33N 46°50' E 031°57'0 0.0
2014-Dec-08 19:33N 46°50' E 031°57'0 0.0
2014-Dec-08 18:33N 46°50' E 031°57'0 0.0
2014-Dec-08 17:33N 46°50' E 031°57'0 0.0
2014-Dec-08 16:33N 46°50' E 031°57'0 0.0
2014-Dec-08 15:33N 46°50' E 031°57'0 0.0
2014-Dec-08 14:33N 46°50' E 031°57'0 0.0
2014-Dec-08 13:33N 46°50' E 031°57'0 0.0
2014-Dec-08 12:33N 46°50' E 031°57'0 0.0
2014-Dec-08 11:33N 46°50' E 031°57'0 0.0
2014-Dec-08 10:33N 46°50' E 031°57'0 0.0
2014-Dec-08 09:33N 46°50' E 031°57'0 0.0
2014-Dec-08 08:33N 46°50' E 031°57'0 0.0
2014-Dec-08 07:33N 46°50' E 031°57'0 0.0
2014-Dec-08 06:33N 46°50' E 031°57'0 0.0
2014-Dec-08 05:33N 46°50' E 031°57'0 0.0
2014-Dec-08 04:33N 46°50' E 031°57'0 0.0
2014-Dec-08 03:33N 46°50' E 031°57'0 0.0
2014-Dec-08 02:33N 46°50' E 031°57'0 0.0
2014-Dec-08 01:33N 46°50' E 031°57'0 0.0
2014-Dec-08 00:33N 46°50' E 031°57'0 0.0
2014-Dec-07 23:33N 46°50' E 031°57'0 0.0
2014-Dec-07 22:33N 46°50' E 031°57'0 0.0
2014-Dec-07 21:33N 46°50' E 031°57'0 0.0
2014-Dec-07 20:33N 46°50' E 031°57'0 0.0
2014-Dec-07 19:33N 46°50' E 031°57'0 0.0
2014-Dec-07 18:33N 46°50' E 031°57'0 0.0
2014-Dec-07 17:33N 46°50' E 031°57'0 0.0
2014-Dec-07 16:33N 46°50' E 031°57'0 0.0
2014-Dec-07 15:33N 46°50' E 031°57'5 5.0
2014-Dec-07 14:33N 46°46' E 031°53'9 8.7
2014-Dec-07 13:33N 46°37' E 031°53'10 9.8
2014-Dec-07 12:33N 46°35' E 031°39'9 9.0
2014-Dec-07 11:31N 46°35' E 031°25'1010.1
2014-Dec-07 10:32N 46°35' E 031°11'11 8.2
2014-Dec-07 09:13N 46°29' E 030°57'6 6.8
2014-Dec-07 08:16N 46°24' E 031°01'0 0.0
2014-Dec-07 07:19N 46°24' E 031°01'0 0.0
2014-Dec-07 06:25N 46°24' E 031°01'0 0.0
2014-Dec-07 05:31N 46°24' E 031°01'0 0.0
2014-Dec-07 02:19N 46°24' E 031°01'0 0.0
2014-Dec-07 00:07N 46°24' E 031°01'0 0.0
2014-Dec-06 23:31N 46°24' E 031°01'0 0.0
2014-Dec-06 22:13N 46°24' E 031°01'0 0.0
2014-Dec-06 21:31N 46°24' E 031°01'0 0.0
2014-Dec-06 11:16N 46°24' E 031°01'0 0.0
2014-Dec-06 03:31N 46°24' E 031°01'0 0.0
2014-Dec-06 02:22N 46°24' E 031°01'0 0.0
2014-Dec-05 23:33N 46°24' E 031°01'0 0.0
2014-Dec-05 22:33N 46°24' E 031°01'307 8.9
2014-Dec-04 12:14N 41°26' E 029°15'710.2
2014-Dec-04 11:33N 41°20' E 029°11'20 9.1
2014-Dec-04 09:18N 41°01' E 028°60'6 7.6
2014-Dec-04 08:33N 40°56' E 028°57'3 2.5
2014-Dec-04 07:30N 40°58' E 028°55'1 1.1
2014-Dec-04 06:33N 40°57' E 028°55'1 0.5
2014-Dec-04 04:21N 40°58' E 028°54'0 0.0
2014-Dec-04 03:09N 40°58' E 028°54'0 0.0
2014-Dec-04 02:17N 40°58' E 028°54'0 0.1
2014-Dec-04 01:32N 40°58' E 028°54'0 0.0
2014-Dec-04 00:33N 40°58' E 028°54'0 0.0
2014-Dec-03 23:32N 40°58' E 028°54'  
Track history (hours):
 
Tides and Currents Weather Stations Pressure Air Temp Water Temp Dewpoint Dewpoint Depression Visibility Wind Speed Wind Dir Waves Ship Positions

M/V Bugra Tomba

Last reported at 2014-Dec-13 23:17 UTC. Time now 2014-Dec-18 17:21 UTC.
Position N 37°21' E 026°51'.

Length 99 m; draft 6.3 m.

Type: Ship. MMSI: 271000025.

Date/timePositionNaut miles runAvg speedWind from/ knotsBaromVisibWave heightAir tempDewpointWater temp
2014-Dec-13 23:17N 37°21' E 026°51'21 9.9
2014-Dec-13 21:09N 37°38' E 026°35'10 9.8
2014-Dec-13 20:06N 37°46' E 026°27'243 7.1
2014-Dec-12 10:04N 41°15' E 029°07'4 0.2
2014-Dec-11 16:24N 41°19' E 029°06'338 8.1
2014-Dec-09 22:33N 46°36' E 031°49'8 8.5
2014-Dec-09 21:33N 46°43' E 031°56'4 3.7
2014-Dec-09 20:33N 46°46' E 031°53'3 2.8
2014-Dec-09 19:33N 46°49' E 031°55'2 2.2
2014-Dec-09 18:33N 46°50' E 031°57'0 0.0
2014-Dec-09 17:33N 46°50' E 031°57'0 0.0
2014-Dec-09 16:33N 46°50' E 031°57'0 0.0
2014-Dec-09 15:33N 46°50' E 031°57'0 0.0
2014-Dec-09 14:33N 46°50' E 031°57'0 0.0
2014-Dec-09 13:33N 46°50' E 031°57'0 0.0
2014-Dec-09 12:33N 46°50' E 031°57'0 0.0
2014-Dec-09 11:33N 46°50' E 031°57'0 0.0
2014-Dec-09 10:33N 46°50' E 031°57'0 0.0
2014-Dec-09 09:33N 46°50' E 031°57'0 0.0
2014-Dec-09 08:33N 46°50' E 031°57'0 0.0
2014-Dec-09 07:33N 46°50' E 031°57'0 0.0
2014-Dec-09 06:33N 46°50' E 031°57'0 0.0
2014-Dec-09 05:33N 46°50' E 031°57'0 0.0
2014-Dec-09 04:33N 46°50' E 031°57'0 0.0
2014-Dec-09 03:33N 46°50' E 031°57'0 0.0
2014-Dec-09 02:33N 46°50' E 031°57'0 0.0
2014-Dec-09 01:33N 46°50' E 031°57'0 0.0
2014-Dec-09 00:33N 46°50' E 031°57'0 0.0
2014-Dec-08 23:33N 46°50' E 031°57'0 0.0
2014-Dec-08 22:33N 46°50' E 031°57'0 0.0
2014-Dec-08 21:33N 46°50' E 031°57'0 0.0
2014-Dec-08 20:33N 46°50' E 031°57'0 0.0
2014-Dec-08 19:33N 46°50' E 031°57'0 0.0
2014-Dec-08 18:33N 46°50' E 031°57'0 0.0
2014-Dec-08 17:33N 46°50' E 031°57'0 0.0
2014-Dec-08 16:33N 46°50' E 031°57'0 0.0
2014-Dec-08 15:33N 46°50' E 031°57'0 0.0
2014-Dec-08 14:33N 46°50' E 031°57'0 0.0
2014-Dec-08 13:33N 46°50' E 031°57'0 0.0
2014-Dec-08 12:33N 46°50' E 031°57'0 0.0
2014-Dec-08 11:33N 46°50' E 031°57'0 0.0
2014-Dec-08 10:33N 46°50' E 031°57'0 0.0
2014-Dec-08 09:33N 46°50' E 031°57'0 0.0
2014-Dec-08 08:33N 46°50' E 031°57'0 0.0
2014-Dec-08 07:33N 46°50' E 031°57'0 0.0
2014-Dec-08 06:33N 46°50' E 031°57'0 0.0
2014-Dec-08 05:33N 46°50' E 031°57'0 0.0
2014-Dec-08 04:33N 46°50' E 031°57'0 0.0
2014-Dec-08 03:33N 46°50' E 031°57'0 0.0
2014-Dec-08 02:33N 46°50' E 031°57'0 0.0
2014-Dec-08 01:33N 46°50' E 031°57'0 0.0
2014-Dec-08 00:33N 46°50' E 031°57'0 0.0
2014-Dec-07 23:33N 46°50' E 031°57'0 0.0
2014-Dec-07 22:33N 46°50' E 031°57'0 0.0
2014-Dec-07 21:33N 46°50' E 031°57'0 0.0
2014-Dec-07 20:33N 46°50' E 031°57'0 0.0
2014-Dec-07 19:33N 46°50' E 031°57'0 0.0
2014-Dec-07 18:33N 46°50' E 031°57'0 0.0
2014-Dec-07 17:33N 46°50' E 031°57'0 0.0
2014-Dec-07 16:33N 46°50' E 031°57'0 0.0
2014-Dec-07 15:33N 46°50' E 031°57'5 5.0
2014-Dec-07 14:33N 46°46' E 031°53'9 8.7
2014-Dec-07 13:33N 46°37' E 031°53'10 9.8
2014-Dec-07 12:33N 46°35' E 031°39'9 9.0
2014-Dec-07 11:31N 46°35' E 031°25'1010.1
2014-Dec-07 10:32N 46°35' E 031°11'11 8.2
2014-Dec-07 09:13N 46°29' E 030°57'6 6.8
2014-Dec-07 08:16N 46°24' E 031°01'0 0.0
2014-Dec-07 07:19N 46°24' E 031°01'0 0.0
2014-Dec-07 06:25N 46°24' E 031°01'0 0.0
2014-Dec-07 05:31N 46°24' E 031°01'0 0.0
2014-Dec-07 02:19N 46°24' E 031°01'0 0.0
2014-Dec-07 00:07N 46°24' E 031°01'0 0.0
2014-Dec-06 23:31N 46°24' E 031°01'0 0.0
2014-Dec-06 22:13N 46°24' E 031°01'0 0.0
2014-Dec-06 21:31N 46°24' E 031°01'0 0.0
2014-Dec-06 11:16N 46°24' E 031°01'0 0.0
2014-Dec-06 03:31N 46°24' E 031°01'0 0.0
2014-Dec-06 02:22N 46°24' E 031°01'0 0.0
2014-Dec-05 23:33N 46°24' E 031°01'0 0.0
2014-Dec-05 22:33N 46°24' E 031°01'307 8.9
2014-Dec-04 12:14N 41°26' E 029°15'710.2
2014-Dec-04 11:33N 41°20' E 029°11'20 9.1
2014-Dec-04 09:18N 41°01' E 028°60'6 7.6
2014-Dec-04 08:33N 40°56' E 028°57'3 2.5
2014-Dec-04 07:30N 40°58' E 028°55'1 1.1
2014-Dec-04 06:33N 40°57' E 028°55'1 0.5
2014-Dec-04 04:21N 40°58' E 028°54'0 0.0
2014-Dec-04 03:09N 40°58' E 028°54'0 0.0
2014-Dec-04 02:17N 40°58' E 028°54'0 0.1
2014-Dec-04 01:32N 40°58' E 028°54'0 0.0
2014-Dec-04 00:33N 40°58' E 028°54'0 0.0
2014-Dec-03 23:32N 40°58' E 028°54'  

Dump ship's entire track history